Time;durP1;ratioP1;P1;durP2;ratioP2;P2;SDS_P1;SDS_P2;PMS_P1;PMS_P2;Temp;Humidity;BMP_temperature;BMP_pressure;BME280_temperature;BME280_humidity;BME280_pressure;Samples;Min_cycle;Max_cycle;Signal;HPM_P1;HPM_P2
2022/08/20 00:00:19;;;;;;;7.38;6.63;;;;;;;;;;5026175;28;20652;-65
2022/08/20 00:02:49;;;;;;;8.70;7.60;;;;;;;;;;5025476;28;20195;-65
2022/08/20 00:05:19;;;;;;;9.23;7.78;;;;;;;;;;5025341;28;20487;-65
2022/08/20 00:07:44;;;;;;;8.90;8.02;;;;;;;;;;5027036;28;20630;-65
2022/08/20 00:10:10;;;;;;;10.60;7.78;;;;;;;;;;5024190;28;20262;-65
2022/08/20 00:12:37;;;;;;;12.38;9.57;;;;;;;;;;5028121;28;20209;-65
2022/08/20 00:15:04;;;;;;;12.68;10.63;;;;;;;;;;5024796;28;20183;-64
2022/08/20 00:17:38;;;;;;;12.10;10.18;;;;;;;;;;5026425;28;20689;-65
2022/08/20 00:20:08;;;;;;;16.55;11.25;;;;;;;;;;5025152;28;20190;-65
2022/08/20 00:22:33;;;;;;;14.07;10.98;;;;;;;;;;5029586;28;20182;-65
2022/08/20 00:24:59;;;;;;;16.95;11.57;;;;;;;;;;5025428;28;20521;-65
2022/08/20 00:27:24;;;;;;;18.40;11.93;;;;;;;;;;5025988;28;20206;-65
2022/08/20 00:29:49;;;;;;;13.07;11.32;;;;;;;;;;5026196;28;20491;-65
2022/08/20 00:32:15;;;;;;;16.88;12.13;;;;;;;;;;5030784;28;20209;-65
2022/08/20 00:34:41;;;;;;;14.88;11.15;;;;;;;;;;5024955;28;20265;-65
2022/08/20 00:37:07;;;;;;;16.05;12.80;;;;;;;;;;5016464;28;20178;-65
2022/08/20 00:39:33;;;;;;;15.45;12.75;;;;;;;;;;5024626;28;20186;-66
2022/08/20 00:41:59;;;;;;;15.30;11.38;;;;;;;;;;5018887;28;20213;-65
2022/08/20 00:44:24;;;;;;;16.38;12.55;;;;;;;;;;5009172;28;20190;-65
2022/08/20 00:46:51;;;;;;;19.27;13.80;;;;;;;;;;5021430;28;20335;-65
2022/08/20 00:49:21;;;;;;;15.98;12.95;;;;;;;;;;5028954;28;20233;-65
2022/08/20 00:51:53;;;;;;;15.88;12.77;;;;;;;;;;5016766;28;20190;-65
2022/08/20 00:54:21;;;;;;;19.20;13.05;;;;;;;;;;5029175;28;20497;-65
2022/08/20 00:56:51;;;;;;;16.70;13.02;;;;;;;;;;5016021;28;20179;-65
2022/08/20 00:59:24;;;;;;;16.00;12.18;;;;;;;;;;5028518;28;20194;-65
2022/08/20 01:01:50;;;;;;;17.95;13.18;;;;;;;;;;5015833;28;20730;-65
2022/08/20 01:04:16;;;;;;;15.05;12.52;;;;;;;;;;5029334;28;20479;-65
2022/08/20 01:06:43;;;;;;;17.05;13.50;;;;;;;;;;5017755;28;20232;-65
2022/08/20 01:09:09;;;;;;;17.52;13.43;;;;;;;;;;5038594;28;20174;-65
2022/08/20 01:11:35;;;;;;;14.80;12.55;;;;;;;;;;5028877;28;20476;-65
2022/08/20 01:14:18;;;;;;;18.63;14.13;;;;;;;;;;5029043;28;20170;-65
2022/08/20 01:16:45;;;;;;;19.15;13.30;;;;;;;;;;5027454;28;20185;-65
2022/08/20 01:19:14;;;;;;;18.25;13.63;;;;;;;;;;5028756;28;20182;-65
2022/08/20 01:21:40;;;;;;;21.90;13.73;;;;;;;;;;5027069;28;20567;-65
2022/08/20 01:24:21;;;;;;;17.25;13.73;;;;;;;;;;5028732;28;20474;-65
2022/08/20 01:26:48;;;;;;;18.77;14.05;;;;;;;;;;5025980;28;20210;-65
2022/08/20 01:29:16;;;;;;;21.83;13.35;;;;;;;;;;5028529;28;20189;-65
2022/08/20 01:31:43;;;;;;;19.30;14.52;;;;;;;;;;5034913;28;20256;-65
2022/08/20 01:34:12;;;;;;;19.70;14.13;;;;;;;;;;5031017;28;20174;-65
2022/08/20 01:36:49;;;;;;;17.50;13.25;;;;;;;;;;5024464;28;20182;-65
2022/08/20 01:39:19;;;;;;;17.92;13.77;;;;;;;;;;5023504;28;20218;-65
2022/08/20 01:42:00;;;;;;;18.17;13.73;;;;;;;;;;5030327;28;20288;-65
2022/08/20 01:44:25;;;;;;;19.75;13.68;;;;;;;;;;5031530;28;20178;-65
2022/08/20 01:46:54;;;;;;;17.20;13.63;;;;;;;;;;5026689;28;20206;-65
2022/08/20 01:49:28;;;;;;;20.15;13.50;;;;;;;;;;5031732;28;20186;-65
2022/08/20 01:51:58;;;;;;;16.10;13.25;;;;;;;;;;5026530;28;20192;-65
2022/08/20 01:54:24;;;;;;;16.98;13.98;;;;;;;;;;5031120;28;20663;-64
2022/08/20 01:56:56;;;;;;;19.98;13.73;;;;;;;;;;5027389;28;20194;-65
2022/08/20 01:59:22;;;;;;;20.52;14.95;;;;;;;;;;5031890;28;20186;-64
2022/08/20 02:01:47;;;;;;;21.63;14.60;;;;;;;;;;5028679;28;20771;-64
2022/08/20 02:04:15;;;;;;;17.65;14.93;;;;;;;;;;5032448;28;20229;-65
2022/08/20 02:06:46;;;;;;;17.08;12.45;;;;;;;;;;5023970;28;20304;-64
2022/08/20 02:09:12;;;;;;;20.23;12.95;;;;;;;;;;5038221;28;20303;-65
2022/08/20 02:11:38;;;;;;;21.13;13.82;;;;;;;;;;5023430;28;20684;-65
2022/08/20 02:14:07;;;;;;;20.67;14.32;;;;;;;;;;5032177;28;20186;-65
2022/08/20 02:16:36;;;;;;;22.95;14.70;;;;;;;;;;5022389;28;20187;-65
2022/08/20 02:19:15;;;;;;;23.13;14.77;;;;;;;;;;5032093;28;20178;-65
2022/08/20 02:21:45;;;;;;;18.65;14.40;;;;;;;;;;5021160;28;20194;-65
2022/08/20 02:24:11;;;;;;;21.65;14.55;;;;;;;;;;5031645;28;20306;-65
2022/08/20 02:26:38;;;;;;;20.15;14.07;;;;;;;;;;5020919;28;20297;-65
2022/08/20 02:29:09;;;;;;;18.20;14.48;;;;;;;;;;5031643;28;20248;-65
2022/08/20 02:31:35;;;;;;;24.65;14.63;;;;;;;;;;5037521;28;20213;-65
2022/08/20 02:34:04;;;;;;;20.60;14.85;;;;;;;;;;5030837;28;20237;-65
2022/08/20 02:36:29;;;;;;;18.23;14.10;;;;;;;;;;5014611;28;20178;-65
2022/08/20 02:38:55;;;;;;;19.35;14.50;;;;;;;;;;5028240;28;20232;-65
2022/08/20 02:41:20;;;;;;;19.73;15.02;;;;;;;;;;5028481;28;20182;-65
2022/08/20 02:43:47;;;;;;;23.33;14.43;;;;;;;;;;5030512;28;20664;-65
2022/08/20 02:46:14;;;;;;;22.98;14.95;;;;;;;;;;5028099;28;20234;-65
2022/08/20 02:48:40;;;;;;;20.30;15.07;;;;;;;;;;5021231;28;20195;-65
2022/08/20 02:51:07;;;;;;;20.25;14.30;;;;;;;;;;5022974;28;20217;-65
2022/08/20 02:53:37;;;;;;;22.42;14.10;;;;;;;;;;5023675;28;20657;-65
2022/08/20 02:56:04;;;;;;;21.65;13.63;;;;;;;;;;5030534;28;20197;-64
2022/08/20 02:58:30;;;;;;;21.63;14.50;;;;;;;;;;5030120;28;20263;-64
2022/08/20 03:00:55;;;;;;;23.33;14.25;;;;;;;;;;5028439;28;20191;-65
2022/08/20 03:03:21;;;;;;;21.13;12.73;;;;;;;;;;5030088;28;20178;-65
2022/08/20 03:05:48;;;;;;;18.63;13.60;;;;;;;;;;5029318;28;20181;-65
2022/08/20 03:08:14;;;;;;;19.05;14.23;;;;;;;;;;5033698;28;20196;-65
2022/08/20 03:10:42;;;;;;;17.98;12.65;;;;;;;;;;5030968;28;20307;-64
2022/08/20 03:13:11;;;;;;;20.50;12.43;;;;;;;;;;5025690;28;20243;-64
2022/08/20 03:15:49;;;;;;;17.45;14.00;;;;;;;;;;5030638;28;20182;-65
2022/08/20 03:18:16;;;;;;;17.10;12.57;;;;;;;;;;5025336;28;20185;-65
2022/08/20 03:20:43;;;;;;;19.10;13.57;;;;;;;;;;5030624;28;20178;-65
2022/08/20 03:23:08;;;;;;;16.23;12.15;;;;;;;;;;5024366;28;20213;-65
2022/08/20 03:25:34;;;;;;;16.20;12.80;;;;;;;;;;5029745;28;20230;-65
2022/08/20 03:28:00;;;;;;;17.17;13.48;;;;;;;;;;5023135;28;20210;-65
2022/08/20 03:30:26;;;;;;;21.15;13.27;;;;;;;;;;5029261;28;20541;-65
2022/08/20 03:32:52;;;;;;;16.83;12.65;;;;;;;;;;5018080;28;20206;-65
2022/08/20 03:35:21;;;;;;;23.13;13.57;;;;;;;;;;5026083;28;20212;-65
2022/08/20 03:37:47;;;;;;;24.02;12.90;;;;;;;;;;5020641;28;20190;-65
2022/08/20 03:40:17;;;;;;;19.42;13.02;;;;;;;;;;5031003;28;20231;-65
2022/08/20 03:42:42;;;;;;;18.52;12.90;;;;;;;;;;5012827;28;20748;-65
2022/08/20 03:45:10;;;;;;;20.67;13.25;;;;;;;;;;5030557;28;20265;-65
2022/08/20 03:47:35;;;;;;;19.73;12.75;;;;;;;;;;5018215;28;20218;-65
2022/08/20 03:50:04;;;;;;;20.27;13.20;;;;;;;;;;5021808;28;20212;-65
2022/08/20 03:52:29;;;;;;;19.85;12.98;;;;;;;;;;5025436;28;20181;-65
2022/08/20 03:54:55;;;;;;;17.70;12.73;;;;;;;;;;5029063;28;20594;-65
2022/08/20 03:57:21;;;;;;;20.02;12.90;;;;;;;;;;5028511;28;20190;-64
2022/08/20 03:59:46;;;;;;;22.33;13.57;;;;;;;;;;5026091;28;20177;-64
2022/08/20 04:02:13;;;;;;;18.58;13.30;;;;;;;;;;5027844;28;20645;-64
2022/08/20 04:04:40;;;;;;;20.13;13.35;;;;;;;;;;5027811;28;20264;-65
2022/08/20 04:07:10;;;;;;;24.15;13.57;;;;;;;;;;5029313;28;20359;-65
2022/08/20 04:09:38;;;;;;;20.70;13.25;;;;;;;;;;5023510;28;20194;-65
2022/08/20 04:12:03;;;;;;;20.00;14.07;;;;;;;;;;5022159;28;20178;-65
2022/08/20 04:14:29;;;;;;;18.63;12.18;;;;;;;;;;5029549;28;20182;-65
2022/08/20 04:16:54;;;;;;;18.92;13.35;;;;;;;;;;5026272;28;20175;-65
2022/08/20 04:19:20;;;;;;;18.73;13.48;;;;;;;;;;5028954;28;20206;-65
2022/08/20 04:21:47;;;;;;;25.13;14.77;;;;;;;;;;5027758;28;20185;-65
2022/08/20 04:24:13;;;;;;;20.50;13.50;;;;;;;;;;5021715;28;20728;-65
2022/08/20 04:26:38;;;;;;;21.20;14.02;;;;;;;;;;5024260;28;20211;-65
2022/08/20 04:29:04;;;;;;;21.85;15.05;;;;;;;;;;5015595;28;20257;-64
2022/08/20 04:31:32;;;;;;;23.13;14.27;;;;;;;;;;5031322;28;20352;-65
2022/08/20 04:33:59;;;;;;;21.45;14.77;;;;;;;;;;5022390;28;20206;-65
2022/08/20 04:36:25;;;;;;;22.02;13.75;;;;;;;;;;5018339;28;20178;-65
2022/08/20 04:38:50;;;;;;;17.13;13.38;;;;;;;;;;5022378;28;20276;-65
2022/08/20 04:41:15;;;;;;;23.67;15.23;;;;;;;;;;5017056;28;20304;-65
2022/08/20 04:43:41;;;;;;;23.23;13.80;;;;;;;;;;5018799;28;20280;-65
2022/08/20 04:46:08;;;;;;;24.17;13.93;;;;;;;;;;5025143;28;20193;-63
2022/08/20 04:48:34;;;;;;;20.95;14.18;;;;;;;;;;5009361;28;20179;-64
2022/08/20 04:51:01;;;;;;;22.73;15.30;;;;;;;;;;5023730;28;20186;-64
2022/08/20 04:53:27;;;;;;;31.45;15.60;;;;;;;;;;5018663;28;20213;-64
2022/08/20 04:55:54;;;;;;;21.95;14.65;;;;;;;;;;5028955;28;20190;-64
2022/08/20 04:58:29;;;;;;;22.48;14.50;;;;;;;;;;5017676;28;20182;-64
2022/08/20 05:00:58;;;;;;;19.52;15.35;;;;;;;;;;5029108;28;20192;-64
2022/08/20 05:03:25;;;;;;;25.38;14.90;;;;;;;;;;5028840;28;20232;-64
2022/08/20 05:05:51;;;;;;;25.10;14.75;;;;;;;;;;5029030;28;20181;-64
2022/08/20 05:08:20;;;;;;;21.98;14.45;;;;;;;;;;5033702;28;20204;-64
2022/08/20 05:10:46;;;;;;;19.13;14.20;;;;;;;;;;5028640;28;20227;-64
2022/08/20 05:13:11;;;;;;;20.95;14.23;;;;;;;;;;5013780;28;20187;-64
2022/08/20 05:15:38;;;;;;;20.40;13.90;;;;;;;;;;5026032;28;20182;-64
2022/08/20 05:18:06;;;;;;;17.60;13.75;;;;;;;;;;5032390;28;20193;-64
2022/08/20 05:20:38;;;;;;;20.73;13.63;;;;;;;;;;5029340;28;20186;-64
2022/08/20 05:23:06;;;;;;;26.88;14.27;;;;;;;;;;5031643;28;20548;-64
2022/08/20 05:25:33;;;;;;;23.30;14.45;;;;;;;;;;5031330;28;20257;-64
2022/08/20 05:28:11;;;;;;;23.00;14.15;;;;;;;;;;5031487;28;20699;-64
2022/08/20 05:30:42;;;;;;;21.48;13.55;;;;;;;;;;5032960;28;20586;-64
2022/08/20 05:33:09;;;;;;;22.13;13.60;;;;;;;;;;5030684;28;20198;-64
2022/08/20 05:35:40;;;;;;;25.35;14.07;;;;;;;;;;5030435;28;20197;-64
2022/08/20 05:38:11;;;;;;;25.05;14.25;;;;;;;;;;5029921;28;20261;-64
2022/08/20 05:40:39;;;;;;;22.20;14.25;;;;;;;;;;5028580;28;20237;-64
2022/08/20 05:43:05;;;;;;;26.13;13.63;;;;;;;;;;5025658;28;20265;-64
2022/08/20 05:45:32;;;;;;;22.55;12.98;;;;;;;;;;5029254;28;20190;-64
2022/08/20 05:47:58;;;;;;;25.70;13.32;;;;;;;;;;5025213;28;20772;-64
2022/08/20 05:50:23;;;;;;;24.92;13.27;;;;;;;;;;5032271;28;20178;-64
2022/08/20 05:52:49;;;;;;;19.50;12.27;;;;;;;;;;5022146;28;20178;-64
2022/08/20 05:55:15;;;;;;;18.33;10.98;;;;;;;;;;5019715;28;20198;-64
2022/08/20 05:57:41;;;;;;;19.35;10.35;;;;;;;;;;5023992;28;20187;-64
2022/08/20 06:00:10;;;;;;;15.85;10.00;;;;;;;;;;5031422;28;20708;-65
2022/08/20 06:05:19;;;;;;;13.68;9.73;;;;;;;;;;5029320;28;20289;-64
2022/08/20 06:07:45;;;;;;;17.10;8.38;;;;;;;;;;5036594;28;20242;-64
2022/08/20 06:10:11;;;;;;;19.52;8.35;;;;;;;;;;5032165;28;20186;-64
2022/08/20 06:12:37;;;;;;;13.80;7.88;;;;;;;;;;5031196;28;20606;-64
2022/08/20 06:15:05;;;;;;;16.05;8.05;;;;;;;;;;5030348;28;20213;-64
2022/08/20 06:17:32;;;;;;;17.85;8.93;;;;;;;;;;5030740;28;20182;-64
2022/08/20 06:20:02;;;;;;;14.63;9.10;;;;;;;;;;5026601;28;20185;-64
2022/08/20 06:22:27;;;;;;;15.10;9.10;;;;;;;;;;5026490;28;20273;-64
2022/08/20 06:24:52;;;;;;;13.57;9.00;;;;;;;;;;5024406;28;20353;-64
2022/08/20 06:27:19;;;;;;;16.48;9.27;;;;;;;;;;5029613;28;20323;-63
2022/08/20 06:29:44;;;;;;;19.50;9.05;;;;;;;;;;5031875;28;20201;-63
2022/08/20 06:32:09;;;;;;;13.93;8.65;;;;;;;;;;5037817;28;20202;-64
2022/08/20 06:34:35;;;;;;;16.55;8.38;;;;;;;;;;5030172;28;20186;-64
2022/08/20 06:37:00;;;;;;;14.65;7.88;;;;;;;;;;5030381;28;20186;-64
2022/08/20 06:39:28;;;;;;;13.38;8.52;;;;;;;;;;5018295;28;20178;-64
2022/08/20 06:41:55;;;;;;;17.10;9.63;;;;;;;;;;5030828;28;20642;-64
2022/08/20 06:44:20;;;;;;;15.73;8.60;;;;;;;;;;5027956;28;20185;-64
2022/08/20 06:46:45;;;;;;;16.33;8.27;;;;;;;;;;5022236;28;20218;-64
2022/08/20 06:49:11;;;;;;;16.80;8.38;;;;;;;;;;5024538;28;20182;-64
2022/08/20 06:51:36;;;;;;;16.52;7.97;;;;;;;;;;5030549;28;20204;-64
2022/08/20 06:54:04;;;;;;;14.07;8.10;;;;;;;;;;5026921;28;20642;-65
2022/08/20 06:56:29;;;;;;;16.10;8.10;;;;;;;;;;5029189;28;20227;-64
2022/08/20 06:58:55;;;;;;;11.07;7.53;;;;;;;;;;5026383;28;20563;-64
2022/08/20 07:01:20;;;;;;;16.20;7.05;;;;;;;;;;5030292;28;20189;-64
2022/08/20 07:03:47;;;;;;;10.98;7.25;;;;;;;;;;5025766;28;20178;-64
2022/08/20 07:06:14;;;;;;;10.05;6.32;;;;;;;;;;5029740;28;20198;-64
2022/08/20 07:08:40;;;;;;;15.15;7.60;;;;;;;;;;5026141;28;20285;-64
2022/08/20 07:11:05;;;;;;;14.30;6.55;;;;;;;;;;5030229;28;20514;-64
2022/08/20 07:13:31;;;;;;;13.50;6.00;;;;;;;;;;5027775;28;20167;-64
2022/08/20 07:15:56;;;;;;;15.80;7.03;;;;;;;;;;5030460;28;20308;-63
2022/08/20 07:18:22;;;;;;;13.70;5.90;;;;;;;;;;5023278;28;20183;-64
2022/08/20 07:20:48;;;;;;;14.60;5.70;;;;;;;;;;5030462;28;20189;-64
2022/08/20 07:23:14;;;;;;;15.15;5.30;;;;;;;;;;5022367;28;20524;-64
2022/08/20 07:25:41;;;;;;;13.98;5.60;;;;;;;;;;5029413;28;20309;-64
2022/08/20 07:28:18;;;;;;;10.77;5.25;;;;;;;;;;5023545;28;20641;-64
2022/08/20 07:33:29;;;;;;;12.93;4.55;;;;;;;;;;5033439;28;20297;-63
2022/08/20 07:35:59;;;;;;;9.52;4.18;;;;;;;;;;5029779;28;20193;-63
2022/08/20 07:38:28;;;;;;;10.40;4.32;;;;;;;;;;5021371;28;20187;-63
2022/08/20 07:40:57;;;;;;;11.70;4.50;;;;;;;;;;5028622;28;20179;-63
2022/08/20 07:43:22;;;;;;;11.57;3.88;;;;;;;;;;5021610;28;20190;-63
2022/08/20 07:45:49;;;;;;;7.57;3.65;;;;;;;;;;5024531;28;20186;-63
2022/08/20 07:48:16;;;;;;;7.53;3.50;;;;;;;;;;5029622;28;20185;-63
2022/08/20 07:50:41;;;;;;;8.90;3.63;;;;;;;;;;5030365;28;20608;-63
2022/08/20 07:53:07;;;;;;;9.32;3.10;;;;;;;;;;5029038;28;20214;-65
2022/08/20 07:55:32;;;;;;;10.95;3.22;;;;;;;;;;5028514;28;20174;-64
2022/08/20 07:58:05;;;;;;;8.57;2.75;;;;;;;;;;5025713;28;20188;-64
2022/08/20 08:00:31;;;;;;;10.98;2.63;;;;;;;;;;5029511;28;20270;-64
2022/08/20 08:02:57;;;;;;;7.78;2.60;;;;;;;;;;5027720;28;20265;-64
2022/08/20 08:05:22;;;;;;;12.68;3.00;;;;;;;;;;5021861;28;20189;-64
2022/08/20 08:07:48;;;;;;;7.82;2.47;;;;;;;;;;5023527;28;20665;-64
2022/08/20 08:10:20;;;;;;;10.60;3.13;;;;;;;;;;5029409;28;20205;-64
2022/08/20 08:12:49;;;;;;;8.98;2.85;;;;;;;;;;5015809;28;20187;-63
2022/08/20 08:15:18;;;;;;;12.68;2.58;;;;;;;;;;5028091;28;20213;-63
2022/08/20 08:17:47;;;;;;;10.40;2.45;;;;;;;;;;5028555;28;20193;-63
2022/08/20 08:20:14;;;;;;;8.57;2.22;;;;;;;;;;5012514;28;20234;-64
2022/08/20 08:22:41;;;;;;;11.25;2.80;;;;;;;;;;5019342;28;20187;-64
2022/08/20 08:25:10;;;;;;;9.07;2.45;;;;;;;;;;5013258;28;20230;-63
2022/08/20 08:27:35;;;;;;;11.20;2.55;;;;;;;;;;5029049;28;20574;-63
2022/08/20 08:30:02;;;;;;;11.77;2.63;;;;;;;;;;5021573;28;20196;-63
2022/08/20 08:32:30;;;;;;;10.65;2.45;;;;;;;;;;5035873;28;20209;-63
2022/08/20 08:34:57;;;;;;;10.50;2.28;;;;;;;;;;5022393;28;20190;-64
2022/08/20 08:37:23;;;;;;;7.03;1.95;;;;;;;;;;5028408;28;20544;-64
2022/08/20 08:39:48;;;;;;;11.10;2.25;;;;;;;;;;5022535;28;20575;-64
2022/08/20 08:42:42;;;;;;;8.55;2.28;;;;;;;;;;5028864;28;20188;-64
2022/08/20 08:45:09;;;;;;;10.90;1.90;;;;;;;;;;5018653;28;20201;-64
2022/08/20 08:47:37;;;;;;;7.35;2.08;;;;;;;;;;5028157;28;20653;-63
2022/08/20 08:50:05;;;;;;;6.85;2.10;;;;;;;;;;5018040;28;20184;-64
2022/08/20 08:52:35;;;;;;;10.82;2.63;;;;;;;;;;5028301;28;20193;-64
2022/08/20 08:55:04;;;;;;;8.85;2.45;;;;;;;;;;5015351;28;20178;-63
2022/08/20 08:57:30;;;;;;;9.55;2.50;;;;;;;;;;5029097;28;20182;-64
2022/08/20 09:00:13;;;;;;;11.07;2.53;;;;;;;;;;5015981;28;20369;-64
2022/08/20 09:02:41;;;;;;;11.52;2.70;;;;;;;;;;5029104;28;20189;-63
2022/08/20 09:05:15;;;;;;;12.35;2.60;;;;;;;;;;5016420;28;20201;-63
2022/08/20 09:07:47;;;;;;;9.90;2.33;;;;;;;;;;5032652;28;20204;-64
2022/08/20 09:10:13;;;;;;;13.82;2.65;;;;;;;;;;5015527;28;20178;-64
2022/08/20 09:12:38;;;;;;;8.05;2.25;;;;;;;;;;5028722;28;20529;-63
2022/08/20 09:15:04;;;;;;;11.68;2.72;;;;;;;;;;5015073;28;20293;-63
2022/08/20 09:17:29;;;;;;;8.90;2.80;;;;;;;;;;5028255;28;20209;-64
2022/08/20 09:19:55;;;;;;;11.32;3.20;;;;;;;;;;5014259;28;20276;-63
2022/08/20 09:22:24;;;;;;;7.88;2.75;;;;;;;;;;5026925;28;20194;-64
2022/08/20 09:24:50;;;;;;;10.50;2.60;;;;;;;;;;5026907;28;20236;-64
2022/08/20 09:27:15;;;;;;;8.90;2.45;;;;;;;;;;5018270;28;20202;-63
2022/08/20 09:29:41;;;;;;;10.93;2.10;;;;;;;;;;5019823;28;20527;-62
2022/08/20 09:32:12;;;;;;;8.05;1.98;;;;;;;;;;5034352;28;20880;-62
2022/08/20 09:34:41;;;;;;;6.88;1.90;;;;;;;;;;5026075;28;20188;-62
2022/08/20 09:37:07;;;;;;;9.30;1.90;;;;;;;;;;5028282;28;20662;-64
2022/08/20 09:39:33;;;;;;;8.25;1.63;;;;;;;;;;5025580;28;20182;-63
2022/08/20 09:42:17;;;;;;;8.13;1.88;;;;;;;;;;5028693;28;20189;-63
2022/08/20 09:44:42;;;;;;;6.38;1.50;;;;;;;;;;5027354;28;20273;-63
2022/08/20 09:47:08;;;;;;;9.57;2.00;;;;;;;;;;5027626;28;20309;-64
2022/08/20 09:49:36;;;;;;;8.45;1.80;;;;;;;;;;5023601;28;20193;-64
2022/08/20 09:52:03;;;;;;;8.25;2.13;;;;;;;;;;5015102;28;20190;-63
2022/08/20 09:54:29;;;;;;;10.38;2.28;;;;;;;;;;5026793;28;20257;-64
2022/08/20 09:57:00;;;;;;;12.63;2.05;;;;;;;;;;5028034;28;20709;-64
2022/08/20 09:59:27;;;;;;;10.02;2.30;;;;;;;;;;5022757;28;20646;-63
2022/08/20 10:01:53;;;;;;;9.07;1.80;;;;;;;;;;5021755;28;20193;-63
2022/08/20 10:04:18;;;;;;;8.15;2.15;;;;;;;;;;5023612;28;20183;-62
2022/08/20 10:06:44;;;;;;;7.85;2.00;;;;;;;;;;5030304;28;20214;-62
2022/08/20 10:09:09;;;;;;;7.82;2.10;;;;;;;;;;5027897;28;20183;-63
2022/08/20 10:11:35;;;;;;;9.55;2.22;;;;;;;;;;5030976;28;20312;-63
2022/08/20 10:14:00;;;;;;;9.85;2.05;;;;;;;;;;5031900;28;20194;-63
2022/08/20 10:16:25;;;;;;;9.10;2.30;;;;;;;;;;5030222;28;20194;-63
2022/08/20 10:18:52;;;;;;;7.20;1.95;;;;;;;;;;5028952;28;20178;-63
2022/08/20 10:21:17;;;;;;;5.78;1.60;;;;;;;;;;5027162;28;20182;-63
2022/08/20 10:23:43;;;;;;;7.18;1.92;;;;;;;;;;5031321;28;20243;-63
2022/08/20 10:26:10;;;;;;;9.05;1.70;;;;;;;;;;5031015;28;20190;-62
2022/08/20 10:28:36;;;;;;;8.52;1.70;;;;;;;;;;5027336;28;20217;-64
2022/08/20 10:31:03;;;;;;;8.88;1.85;;;;;;;;;;5027022;28;20209;-64
2022/08/20 10:33:28;;;;;;;7.70;1.98;;;;;;;;;;5026598;28;20174;-63
2022/08/20 10:35:54;;;;;;;8.23;1.75;;;;;;;;;;5014331;28;20186;-62
2022/08/20 10:38:19;;;;;;;9.07;1.60;;;;;;;;;;5027729;28;20189;-62
2022/08/20 10:40:44;;;;;;;10.27;2.17;;;;;;;;;;5017351;28;20235;-62
2022/08/20 10:43:10;;;;;;;8.75;1.48;;;;;;;;;;5030472;28;20626;-63
2022/08/20 10:45:35;;;;;;;6.53;1.63;;;;;;;;;;5026868;28;20654;-63
2022/08/20 10:48:01;;;;;;;8.82;2.03;;;;;;;;;;5029861;28;20210;-63
2022/08/20 10:50:26;;;;;;;6.45;1.52;;;;;;;;;;5030791;28;20209;-65
2022/08/20 10:52:51;;;;;;;11.45;1.52;;;;;;;;;;5030506;28;20433;-63
2022/08/20 10:55:17;;;;;;;6.35;1.60;;;;;;;;;;5026164;28;20182;-65
2022/08/20 10:57:43;;;;;;;6.03;1.60;;;;;;;;;;5029470;28;20186;-66
2022/08/20 11:00:13;;;;;;;6.03;1.60;;;;;;;;;;5025389;28;20705;-64
2022/08/20 11:02:39;;;;;;;6.35;1.70;;;;;;;;;;5025152;28;20251;-63
2022/08/20 11:05:06;;;;;;;11.07;2.17;;;;;;;;;;5024897;28;20170;-63
2022/08/20 11:07:34;;;;;;;11.00;1.70;;;;;;;;;;5034273;28;20243;-64
2022/08/20 11:10:00;;;;;;;7.90;1.83;;;;;;;;;;5026352;28;20178;-64
2022/08/20 11:12:26;;;;;;;5.88;2.00;;;;;;;;;;5029781;28;20175;-64
2022/08/20 11:14:53;;;;;;;11.52;1.70;;;;;;;;;;5029232;28;20193;-64
2022/08/20 11:17:25;;;;;;;7.65;1.75;;;;;;;;;;5019300;28;20264;-65
2022/08/20 11:19:52;;;;;;;8.85;1.60;;;;;;;;;;5031994;28;20820;-65
2022/08/20 11:22:18;;;;;;;8.05;1.75;;;;;;;;;;5030323;28;20233;-66
2022/08/20 11:24:43;;;;;;;8.13;2.10;;;;;;;;;;5030007;28;20238;-64
2022/08/20 11:27:09;;;;;;;6.38;1.60;;;;;;;;;;5029411;28;20717;-64
2022/08/20 11:29:36;;;;;;;4.75;1.50;;;;;;;;;;5024547;28;20278;-65
2022/08/20 11:32:02;;;;;;;7.10;1.70;;;;;;;;;;5035562;28;20289;-63
2022/08/20 11:34:27;;;;;;;6.82;1.77;;;;;;;;;;5029184;28;20190;-62
2022/08/20 11:36:53;;;;;;;6.28;1.88;;;;;;;;;;5029301;28;20178;-61
2022/08/20 11:39:18;;;;;;;5.90;1.20;;;;;;;;;;5027635;28;20273;-63
2022/08/20 11:41:44;;;;;;;6.63;1.70;;;;;;;;;;5021722;28;20205;-62
2022/08/20 11:44:10;;;;;;;6.60;1.30;;;;;;;;;;5027255;28;20236;-62
2022/08/20 11:46:35;;;;;;;9.40;2.33;;;;;;;;;;5030185;28;20205;-63
2022/08/20 11:49:01;;;;;;;9.98;1.60;;;;;;;;;;5016971;28;20538;-64
2022/08/20 11:51:27;;;;;;;9.50;1.52;;;;;;;;;;5027319;28;20196;-64
2022/08/20 11:53:52;;;;;;;5.65;1.30;;;;;;;;;;5027098;28;20178;-63
2022/08/20 11:56:19;;;;;;;6.03;1.60;;;;;;;;;;5019573;28;20189;-63
2022/08/20 11:58:45;;;;;;;8.75;2.10;;;;;;;;;;5021202;28;20186;-64
2022/08/20 12:01:11;;;;;;;8.82;1.83;;;;;;;;;;5022254;28;20652;-64
2022/08/20 12:03:36;;;;;;;5.97;1.65;;;;;;;;;;5029697;28;20201;-64
2022/08/20 12:06:01;;;;;;;13.13;1.90;;;;;;;;;;5029441;28;20266;-64
2022/08/20 12:08:28;;;;;;;5.07;1.70;;;;;;;;;;5035695;28;20320;-63
2022/08/20 12:10:55;;;;;;;4.30;1.33;;;;;;;;;;5026300;28;20182;-63
2022/08/20 12:13:20;;;;;;;7.88;1.73;;;;;;;;;;5028918;28;20209;-63
2022/08/20 12:15:48;;;;;;;4.50;1.30;;;;;;;;;;5028044;28;20275;-64
2022/08/20 12:18:14;;;;;;;4.65;1.10;;;;;;;;;;5028376;28;20175;-63
2022/08/20 12:20:39;;;;;;;6.97;1.65;;;;;;;;;;5025182;28;20186;-64
2022/08/20 12:23:04;;;;;;;5.68;1.45;;;;;;;;;;5029303;28;20174;-67
2022/08/20 12:25:30;;;;;;;5.65;1.67;;;;;;;;;;5012608;28;20226;-63
2022/08/20 12:27:55;;;;;;;4.70;1.52;;;;;;;;;;5029690;28;20247;-63
2022/08/20 12:30:23;;;;;;;5.18;1.25;;;;;;;;;;5028010;28;20193;-62
2022/08/20 12:32:48;;;;;;;6.30;1.52;;;;;;;;;;5037615;28;20284;-64
2022/08/20 12:35:15;;;;;;;5.22;1.25;;;;;;;;;;5022894;28;20270;-64
2022/08/20 12:37:42;;;;;;;7.30;1.27;;;;;;;;;;5028259;28;20228;-63
2022/08/20 12:40:12;;;;;;;5.28;1.30;;;;;;;;;;5022965;28;20546;-63
2022/08/20 12:42:37;;;;;;;5.55;1.60;;;;;;;;;;5023625;28;20236;-63
2022/08/20 12:45:04;;;;;;;5.13;1.60;;;;;;;;;;5024997;28;20183;-63
2022/08/20 12:47:32;;;;;;;5.03;1.60;;;;;;;;;;5022188;28;20208;-63
2022/08/20 12:50:00;;;;;;;7.88;1.70;;;;;;;;;;5020445;28;20233;-65
2022/08/20 12:52:27;;;;;;;5.70;1.58;;;;;;;;;;5021236;28;20700;-65
2022/08/20 12:54:53;;;;;;;7.65;1.40;;;;;;;;;;5022292;28;20183;-65
2022/08/20 12:57:28;;;;;;;6.85;1.30;;;;;;;;;;5020557;28;20181;-65
2022/08/20 12:59:55;;;;;;;3.95;1.45;;;;;;;;;;5026154;28;20190;-65
2022/08/20 13:02:20;;;;;;;6.13;1.45;;;;;;;;;;5028938;28;20551;-66
2022/08/20 13:04:46;;;;;;;4.80;1.15;;;;;;;;;;5011551;28;20182;-64
2022/08/20 13:07:12;;;;;;;4.55;2.05;;;;;;;;;;5000218;28;20279;-64
2022/08/20 13:09:38;;;;;;;3.45;1.10;;;;;;;;;;5006704;28;20194;-64
2022/08/20 13:12:04;;;;;;;3.53;1.50;;;;;;;;;;5026101;28;20186;-64
2022/08/20 13:14:29;;;;;;;5.22;1.67;;;;;;;;;;5028774;28;20257;-64
2022/08/20 13:16:59;;;;;;;7.18;1.88;;;;;;;;;;5028297;28;20402;-64
2022/08/20 13:19:26;;;;;;;6.00;1.58;;;;;;;;;;5028774;28;20264;-64
2022/08/20 13:21:52;;;;;;;5.93;1.80;;;;;;;;;;5026464;28;20547;-64
2022/08/20 13:24:18;;;;;;;6.10;1.50;;;;;;;;;;5029193;28;20692;-65
2022/08/20 13:26:43;;;;;;;6.25;1.27;;;;;;;;;;5026766;28;20198;-65
2022/08/20 13:29:09;;;;;;;3.47;1.30;;;;;;;;;;5029418;28;20228;-64
2022/08/20 13:31:34;;;;;;;6.90;1.70;;;;;;;;;;5036229;28;20201;-73
2022/08/20 13:34:00;;;;;;;6.68;1.98;;;;;;;;;;5021787;28;20261;-67
2022/08/20 13:36:25;;;;;;;6.15;1.65;;;;;;;;;;5027992;28;20564;-66
2022/08/20 13:38:51;;;;;;;6.35;1.30;;;;;;;;;;5032023;28;20201;-66
2022/08/20 13:41:16;;;;;;;5.80;1.30;;;;;;;;;;5025159;28;20270;-66
2022/08/20 13:43:42;;;;;;;5.93;1.52;;;;;;;;;;5032609;28;20186;-66
2022/08/20 13:46:07;;;;;;;5.63;1.60;;;;;;;;;;5031278;28;20181;-64
2022/08/20 13:48:32;;;;;;;4.10;1.65;;;;;;;;;;5033139;28;20186;-64
2022/08/20 13:50:58;;;;;;;2.38;1.02;;;;;;;;;;5022649;28;20183;-64
2022/08/20 13:53:23;;;;;;;8.27;1.70;;;;;;;;;;5032592;28;20189;-64
2022/08/20 13:55:49;;;;;;;10.13;1.60;;;;;;;;;;5024755;28;20221;-64
2022/08/20 13:58:14;;;;;;;6.28;1.50;;;;;;;;;;5030189;28;20228;-65
2022/08/20 14:00:40;;;;;;;4.22;1.48;;;;;;;;;;5031474;28;20551;-65
2022/08/20 14:03:06;;;;;;;4.38;1.42;;;;;;;;;;5031288;28;20189;-65
2022/08/20 14:05:34;;;;;;;7.25;1.70;;;;;;;;;;5027622;28;20269;-65
2022/08/20 14:08:06;;;;;;;4.50;1.58;;;;;;;;;;5032740;28;20705;-65
2022/08/20 14:10:31;;;;;;;6.05;1.48;;;;;;;;;;5027938;28;20191;-64
2022/08/20 14:12:58;;;;;;;5.22;1.30;;;;;;;;;;5026388;28;20700;-64
2022/08/20 14:15:24;;;;;;;6.00;1.42;;;;;;;;;;5028556;28;20678;-66
2022/08/20 14:17:52;;;;;;;6.32;1.45;;;;;;;;;;5024071;28;20170;-66
2022/08/20 14:20:20;;;;;;;9.13;2.28;;;;;;;;;;5031535;28;20178;-66
2022/08/20 14:22:46;;;;;;;7.35;1.50;;;;;;;;;;5030488;28;20185;-67
2022/08/20 14:25:17;;;;;;;7.97;1.65;;;;;;;;;;5029594;28;20237;-71
2022/08/20 14:27:43;;;;;;;5.32;1.38;;;;;;;;;;5022102;28;20245;-67
2022/08/20 14:30:12;;;;;;;6.07;1.38;;;;;;;;;;5023916;28;20206;-70
2022/08/20 14:32:38;;;;;;;4.60;1.45;;;;;;;;;;5039691;28;20670;-66
2022/08/20 14:35:04;;;;;;;7.00;1.60;;;;;;;;;;5018293;28;20183;-67